Time;durP1;ratioP1;P1;durP2;ratioP2;P2;SDS_P1;SDS_P2;PMS_P1;PMS_P2;Temp;Humidity;BMP_temperature;BMP_pressure;BME280_temperature;BME280_humidity;BME280_pressure;Samples;Min_cycle;Max_cycle;Signal;HPM_P1;HPM_P2
2021/07/13 00:02:24;;;;;;;10.70;9.00;;;21.40;88.00;;;;;;5060594;28;20452;-44
2021/07/13 00:04:53;;;;;;;9.67;8.67;;;21.40;88.10;;;;;;5058859;28;20472;-44
2021/07/13 00:07:20;;;;;;;11.67;8.50;;;21.40;88.20;;;;;;5064260;28;20558;-44
2021/07/13 00:09:48;;;;;;;9.10;7.87;;;21.40;88.20;;;;;;5090298;28;20551;-44
2021/07/13 00:12:14;;;;;;;10.40;8.57;;;21.40;88.30;;;;;;5086201;28;20723;-44
2021/07/13 00:14:42;;;;;;;9.37;8.17;;;21.30;88.40;;;;;;5060371;28;20513;-44
2021/07/13 00:17:09;;;;;;;9.23;8.30;;;21.30;88.50;;;;;;5063929;28;20476;-45
2021/07/13 00:19:36;;;;;;;9.43;8.63;;;21.30;88.50;;;;;;5059378;28;20946;-44
2021/07/13 00:22:04;;;;;;;10.10;9.10;;;21.30;88.60;;;;;;5063085;28;20458;-45
2021/07/13 00:24:30;;;;;;;10.20;9.27;;;21.30;88.70;;;;;;5090195;28;20461;-44
2021/07/13 00:26:57;;;;;;;9.43;8.53;;;21.30;88.70;;;;;;5060668;28;20462;-45
2021/07/13 00:29:24;;;;;;;8.43;7.53;;;21.30;88.80;;;;;;5062286;28;20454;-44
2021/07/13 00:31:51;;;;;;;10.37;8.73;;;21.30;88.90;;;;;;5061797;28;20544;-45
2021/07/13 00:34:19;;;;;;;10.77;8.67;;;21.30;88.90;;;;;;5059865;28;20565;-46
2021/07/13 00:36:45;;;;;;;10.20;8.70;;;21.20;89.00;;;;;;5057533;28;20979;-46
2021/07/13 00:39:12;;;;;;;9.10;8.20;;;21.30;89.10;;;;;;5063832;28;20464;-46
2021/07/13 00:41:39;;;;;;;10.87;9.73;;;21.30;89.10;;;;;;5055506;28;20445;-46
2021/07/13 00:44:06;;;;;;;11.20;9.13;;;21.30;89.10;;;;;;5056727;28;20901;-46
2021/07/13 00:46:46;;;;;;;9.83;8.93;;;21.30;89.10;;;;;;5058856;28;20712;-46
2021/07/13 00:49:15;;;;;;;12.80;8.90;;;21.30;89.00;;;;;;5058144;28;20846;-46
2021/07/13 00:51:44;;;;;;;9.23;8.33;;;21.30;89.00;;;;;;5062822;28;20449;-46
2021/07/13 00:54:12;;;;;;;10.60;8.37;;;21.30;89.10;;;;;;5057147;28;20463;-46
2021/07/13 00:56:41;;;;;;;10.17;9.10;;;21.20;89.20;;;;;;5086445;28;20445;-46
2021/07/13 00:59:09;;;;;;;9.77;7.87;;;21.20;89.20;;;;;;5063039;28;20468;-46
2021/07/13 01:01:36;;;;;;;11.70;8.03;;;21.20;89.20;;;;;;5063267;28;20468;-46
2021/07/13 01:04:05;;;;;;;11.23;9.00;;;21.20;89.30;;;;;;5085893;28;20462;-46
2021/07/13 01:07:05;;;;;;;15.13;8.43;;;21.20;89.30;;;;;;5060783;28;20454;-46
2021/07/13 01:09:51;;;;;;;10.50;9.37;;;21.20;89.30;;;;;;5063234;28;20454;-46
2021/07/13 01:12:37;;;;;;;12.50;8.30;;;21.20;89.30;;;;;;5062204;28;20454;-46
2021/07/13 01:15:06;;;;;;;9.10;8.30;;;21.20;89.40;;;;;;5084775;28;20466;-46
2021/07/13 01:17:58;;;;;;;9.53;8.00;;;21.20;89.40;;;;;;5057778;28;20484;-46
2021/07/13 01:20:31;;;;;;;13.10;9.20;;;21.20;89.40;;;;;;5059005;28;20863;-46
2021/07/13 01:23:36;;;;;;;10.13;8.70;;;21.20;89.30;;;;;;5058771;28;20469;-46
2021/07/13 01:26:40;;;;;;;10.43;8.60;;;21.10;89.40;;;;;;5086207;28;20454;-46
2021/07/13 01:29:11;;;;;;;10.90;8.87;;;21.10;89.40;;;;;;5057253;28;20476;-46
2021/07/13 01:31:41;;;;;;;9.57;8.00;;;21.10;89.40;;;;;;5092664;28;20469;-46
2021/07/13 01:34:21;;;;;;;9.63;8.73;;;21.10;89.40;;;;;;5055705;28;20496;-46
2021/07/13 01:36:52;;;;;;;12.13;9.43;;;21.10;89.50;;;;;;5062130;28;20528;-46
2021/07/13 01:39:20;;;;;;;10.30;8.37;;;21.00;89.60;;;;;;5058734;28;20458;-46
2021/07/13 01:41:49;;;;;;;11.63;8.90;;;21.10;89.70;;;;;;5059449;28;20551;-46
2021/07/13 01:44:19;;;;;;;9.77;8.57;;;21.00;89.70;;;;;;5063575;28;20935;-46
2021/07/13 01:46:48;;;;;;;11.23;9.03;;;21.10;89.70;;;;;;5060599;28;20994;-46
2021/07/13 01:49:19;;;;;;;11.53;10.33;;;21.00;89.80;;;;;;5059409;28;20463;-46
2021/07/13 01:51:47;;;;;;;10.90;9.80;;;21.10;89.80;;;;;;5057754;28;20850;-46
2021/07/13 01:54:16;;;;;;;13.77;11.40;;;21.10;89.70;;;;;;5063010;28;20451;-46
2021/07/13 01:56:50;;;;;;;12.73;11.33;;;21.10;89.70;;;;;;5060966;28;20467;-46
2021/07/13 01:59:19;;;;;;;14.70;12.07;;;21.10;89.70;;;;;;5059877;28;20449;-45
2021/07/13 02:01:47;;;;;;;12.50;11.17;;;21.00;89.80;;;;;;5059492;28;20993;-45
2021/07/13 02:04:15;;;;;;;14.53;12.33;;;21.00;89.80;;;;;;5062656;28;20523;-45
2021/07/13 02:06:43;;;;;;;15.47;12.00;;;21.00;89.80;;;;;;5059305;28;20465;-46
2021/07/13 02:09:13;;;;;;;12.57;11.37;;;21.00;89.80;;;;;;5060879;28;20458;-44
2021/07/13 02:11:48;;;;;;;13.17;10.97;;;21.00;89.80;;;;;;5086379;28;21042;-44
2021/07/13 02:14:15;;;;;;;13.80;11.57;;;21.00;89.80;;;;;;5059231;28;20453;-43
2021/07/13 02:16:43;;;;;;;14.97;10.67;;;21.00;89.80;;;;;;5064206;28;20527;-44
2021/07/13 02:19:10;;;;;;;12.30;11.07;;;21.00;89.80;;;;;;5056306;28;20501;-44
2021/07/13 02:21:37;;;;;;;11.70;10.50;;;21.00;89.80;;;;;;5061334;28;20979;-45
2021/07/13 02:24:04;;;;;;;13.30;10.70;;;20.90;89.80;;;;;;5063722;28;20462;-45
2021/07/13 02:26:48;;;;;;;13.67;12.23;;;20.90;89.80;;;;;;5060793;28;20585;-44
2021/07/13 02:29:22;;;;;;;15.30;10.90;;;20.90;89.80;;;;;;5056265;28;20457;-44
2021/07/13 02:31:58;;;;;;;9.97;9.00;;;20.90;89.80;;;;;;5064241;28;20833;-45
2021/07/13 02:34:28;;;;;;;12.90;9.93;;;20.90;89.80;;;;;;5063180;28;20978;-44
2021/07/13 02:37:00;;;;;;;10.67;9.57;;;20.90;89.80;;;;;;5060754;28;20808;-44
2021/07/13 02:39:29;;;;;;;14.60;10.07;;;20.90;89.80;;;;;;5060652;28;20790;-45
2021/07/13 02:41:56;;;;;;;11.97;9.33;;;20.90;89.80;;;;;;5057898;28;20457;-44
2021/07/13 02:44:28;;;;;;;13.97;10.83;;;20.90;89.80;;;;;;5059986;28;20553;-44
2021/07/13 02:46:56;;;;;;;11.30;10.00;;;20.90;89.80;;;;;;5060305;28;20481;-44
2021/07/13 02:49:30;;;;;;;11.30;9.10;;;20.80;89.80;;;;;;5089476;28;20545;-43
2021/07/13 02:52:03;;;;;;;10.40;9.03;;;20.80;89.80;;;;;;5059014;28;20853;-45
2021/07/13 02:54:30;;;;;;;11.57;10.37;;;20.80;89.80;;;;;;5062839;28;20467;-45
2021/07/13 02:57:02;;;;;;;9.30;8.30;;;20.80;89.80;;;;;;5060791;28;20466;-46
2021/07/13 02:59:29;;;;;;;11.13;9.40;;;20.80;89.80;;;;;;5059381;28;20462;-45
2021/07/13 03:01:57;;;;;;;10.53;9.20;;;20.80;89.80;;;;;;5057958;28;20573;-45
2021/07/13 03:04:24;;;;;;;10.50;8.57;;;20.80;89.80;;;;;;5062276;28;20532;-46
2021/07/13 03:06:53;;;;;;;10.10;8.87;;;20.80;89.80;;;;;;5059137;28;20963;-45
2021/07/13 03:09:20;;;;;;;12.93;8.60;;;20.80;89.80;;;;;;5059547;28;20458;-43
2021/07/13 03:11:47;;;;;;;9.77;8.53;;;20.70;89.80;;;;;;5059107;28;20484;-44
2021/07/13 03:14:17;;;;;;;10.83;9.47;;;20.70;89.80;;;;;;5059068;28;20467;-46
2021/07/13 03:16:47;;;;;;;11.20;9.50;;;20.70;89.80;;;;;;5057364;28;20827;-44
2021/07/13 03:19:15;;;;;;;8.97;8.07;;;20.70;89.80;;;;;;5058006;28;20549;-44
2021/07/13 03:21:48;;;;;;;8.93;7.90;;;20.70;89.80;;;;;;5057489;28;20484;-45
2021/07/13 03:24:16;;;;;;;9.00;7.73;;;20.70;89.80;;;;;;5092474;28;20452;-44
2021/07/13 03:26:45;;;;;;;9.00;7.97;;;20.70;89.80;;;;;;5059133;28;20732;-45
2021/07/13 03:29:13;;;;;;;10.07;8.60;;;20.70;89.80;;;;;;5058600;28;21054;-46
2021/07/13 03:31:42;;;;;;;9.83;8.00;;;20.70;89.80;;;;;;5058638;28;20543;-45
2021/07/13 03:34:09;;;;;;;11.60;7.97;;;20.70;89.80;;;;;;5090984;28;20979;-45
2021/07/13 03:36:37;;;;;;;9.30;8.27;;;20.70;89.80;;;;;;5062013;28;20494;-44
2021/07/13 03:39:05;;;;;;;9.90;8.90;;;20.70;89.80;;;;;;5060852;28;20473;-43
2021/07/13 03:41:32;;;;;;;8.77;7.90;;;20.70;89.80;;;;;;5061709;28;21322;-45
2021/07/13 03:44:04;;;;;;;11.60;8.87;;;20.70;89.80;;;;;;5066592;28;20445;-45
2021/07/13 03:46:36;;;;;;;10.53;8.20;;;20.60;89.80;;;;;;5061526;28;20533;-44
2021/07/13 03:49:05;;;;;;;9.67;8.13;;;20.60;89.80;;;;;;5060223;28;20600;-45
2021/07/13 03:51:39;;;;;;;9.67;8.23;;;20.60;89.80;;;;;;5062523;28;20548;-45
2021/07/13 03:54:07;;;;;;;10.47;7.83;;;20.60;89.80;;;;;;5060618;28;20500;-45
2021/07/13 03:56:36;;;;;;;9.57;8.20;;;20.60;89.80;;;;;;5058822;28;20484;-45
2021/07/13 03:59:03;;;;;;;13.00;9.20;;;20.60;89.80;;;;;;5087132;27;20458;-45
2021/07/13 04:01:30;;;;;;;10.23;8.47;;;20.60;89.80;;;;;;5057973;28;21009;-43
2021/07/13 04:03:57;;;;;;;10.47;9.10;;;20.60;89.80;;;;;;5064248;28;20978;-44
2021/07/13 04:06:24;;;;;;;10.70;8.80;;;20.60;89.80;;;;;;5063116;28;20461;-44
2021/07/13 04:08:51;;;;;;;10.70;9.10;;;20.50;89.80;;;;;;5067305;28;20449;-45
2021/07/13 04:11:19;;;;;;;9.47;8.50;;;20.50;89.80;;;;;;5057217;28;20584;-45
2021/07/13 04:13:45;;;;;;;8.83;7.77;;;20.50;89.80;;;;;;5063521;28;20975;-45
2021/07/13 04:16:13;;;;;;;9.63;8.33;;;20.50;89.80;;;;;;5062841;28;20458;-45
2021/07/13 04:18:40;;;;;;;10.80;8.93;;;20.60;89.80;;;;;;5061516;28;20569;-44
2021/07/13 04:21:07;;;;;;;9.60;7.97;;;20.60;89.80;;;;;;5059811;28;20510;-45
2021/07/13 04:23:35;;;;;;;11.20;8.20;;;20.60;89.80;;;;;;5063490;28;20514;-45
2021/07/13 04:26:04;;;;;;;9.97;8.40;;;20.60;89.80;;;;;;5061201;28;20506;-45
2021/07/13 04:28:31;;;;;;;9.67;8.23;;;20.60;89.80;;;;;;5090777;28;20490;-45
2021/07/13 04:30:59;;;;;;;10.50;9.40;;;20.60;89.80;;;;;;5090540;28;20494;-45
2021/07/13 04:33:27;;;;;;;10.90;9.13;;;20.60;89.80;;;;;;5062069;28;20967;-44
2021/07/13 04:35:55;;;;;;;10.50;9.10;;;20.60;89.80;;;;;;5062704;28;21160;-43
2021/07/13 04:38:21;;;;;;;13.47;10.40;;;20.50;89.80;;;;;;5062225;28;20936;-45
2021/07/13 04:40:48;;;;;;;10.97;9.40;;;20.50;89.80;;;;;;5089776;28;20477;-44
2021/07/13 04:43:16;;;;;;;10.67;9.10;;;20.50;89.80;;;;;;5061449;28;20456;-46
2021/07/13 04:45:42;;;;;;;13.47;8.40;;;20.50;89.80;;;;;;5061815;28;20466;-46
2021/07/13 04:48:09;;;;;;;13.30;8.77;;;20.50;89.80;;;;;;5061876;28;20805;-45
2021/07/13 04:50:36;;;;;;;10.03;8.73;;;20.50;89.80;;;;;;5065552;28;20822;-45
2021/07/13 04:53:03;;;;;;;11.90;9.40;;;20.50;89.80;;;;;;5060949;28;20835;-45
2021/07/13 04:55:30;;;;;;;11.13;9.50;;;20.50;89.80;;;;;;5060303;28;20451;-45
2021/07/13 04:57:57;;;;;;;10.97;9.03;;;20.50;89.80;;;;;;5085667;28;20962;-45
2021/07/13 05:00:24;;;;;;;9.90;8.90;;;20.50;89.80;;;;;;5061472;28;20835;-45
2021/07/13 05:02:51;;;;;;;12.00;9.67;;;20.60;89.80;;;;;;5061149;28;20461;-45
2021/07/13 05:05:20;;;;;;;10.20;8.73;;;20.60;89.80;;;;;;5059702;28;20452;-45
2021/07/13 05:07:48;;;;;;;10.47;9.47;;;20.60;89.80;;;;;;5060200;28;20478;-44
2021/07/13 05:10:16;;;;;;;9.80;8.80;;;20.60;89.80;;;;;;5063382;28;20454;-46
2021/07/13 05:12:44;;;;;;;9.10;8.20;;;20.60;89.80;;;;;;5064628;28;20465;-46
2021/07/13 05:15:12;;;;;;;9.93;8.93;;;20.60;89.80;;;;;;5058723;28;20453;-45
2021/07/13 05:17:39;;;;;;;9.60;8.00;;;20.60;89.80;;;;;;5062196;28;20500;-45
2021/07/13 05:20:09;;;;;;;9.63;8.67;;;20.60;89.80;;;;;;5063187;28;20814;-46
2021/07/13 05:22:36;;;;;;;10.47;9.10;;;20.70;89.80;;;;;;5065651;28;20477;-45
2021/07/13 05:25:06;;;;;;;9.87;8.93;;;20.70;89.80;;;;;;5060391;28;20443;-45
2021/07/13 05:27:38;;;;;;;10.50;8.60;;;20.70;89.80;;;;;;5064581;28;20445;-45
2021/07/13 05:30:07;;;;;;;10.27;9.13;;;20.70;89.80;;;;;;5091129;28;20458;-45
2021/07/13 05:32:37;;;;;;;11.10;8.77;;;20.70;89.80;;;;;;5061415;28;20469;-45
2021/07/13 05:35:05;;;;;;;10.00;9.00;;;20.60;89.80;;;;;;5065316;28;20446;-43
2021/07/13 05:37:33;;;;;;;9.90;8.33;;;20.60;89.80;;;;;;5063894;28;20458;-45
2021/07/13 05:40:02;;;;;;;10.63;9.53;;;20.60;89.80;;;;;;5058556;28;20733;-46
2021/07/13 05:42:30;;;;;;;9.90;8.87;;;20.60;89.80;;;;;;5060255;28;20492;-44
2021/07/13 05:44:56;;;;;;;14.30;9.40;;;20.60;89.80;;;;;;5065412;28;20453;-44
2021/07/13 05:47:23;;;;;;;10.93;8.50;;;20.60;89.80;;;;;;5059377;28;20467;-45
2021/07/13 05:49:50;;;;;;;12.70;8.57;;;20.70;89.80;;;;;;5063580;28;20465;-45
2021/07/13 05:52:17;;;;;;;9.87;8.97;;;20.60;89.80;;;;;;5061041;28;20459;-45
2021/07/13 05:54:43;;;;;;;10.63;8.90;;;20.60;89.80;;;;;;5059191;28;20446;-43
2021/07/13 05:57:10;;;;;;;9.80;8.90;;;20.60;89.80;;;;;;5059030;28;20458;-44
2021/07/13 05:59:37;;;;;;;12.17;10.53;;;20.60;89.80;;;;;;5056956;28;20453;-46
2021/07/13 06:02:04;;;;;;;11.13;9.10;;;20.60;89.80;;;;;;5060210;28;20490;-45
2021/07/13 06:04:31;;;;;;;13.43;9.87;;;20.60;89.80;;;;;;5092141;28;20459;-43
2021/07/13 06:06:58;;;;;;;11.77;10.57;;;20.60;89.80;;;;;;5058829;28;20835;-46
2021/07/13 06:09:27;;;;;;;11.17;9.50;;;20.70;89.80;;;;;;5057279;28;20457;-45
2021/07/13 06:11:55;;;;;;;12.10;10.50;;;20.70;89.80;;;;;;5090865;28;20460;-45
2021/07/13 06:14:22;;;;;;;12.47;11.27;;;20.70;89.80;;;;;;5060820;28;20557;-46
2021/07/13 06:17:04;;;;;;;11.97;10.70;;;20.70;89.80;;;;;;5056637;28;20540;-44
2021/07/13 06:19:31;;;;;;;13.87;10.80;;;20.70;89.80;;;;;;5061496;28;20500;-45
2021/07/13 06:21:58;;;;;;;15.97;11.60;;;20.70;89.80;;;;;;5061731;28;20499;-45
2021/07/13 06:24:24;;;;;;;13.33;10.80;;;20.80;89.80;;;;;;5085555;28;20466;-43
2021/07/13 06:26:51;;;;;;;12.43;10.37;;;20.80;89.80;;;;;;5060121;28;20454;-45
2021/07/13 06:29:18;;;;;;;13.90;11.33;;;20.80;89.80;;;;;;5060874;28;20453;-45
2021/07/13 06:31:45;;;;;;;11.50;10.30;;;20.90;89.80;;;;;;5086074;28;20470;-45
2021/07/13 06:34:13;;;;;;;14.50;9.90;;;20.90;89.80;;;;;;5062724;28;20454;-44
2021/07/13 06:36:40;;;;;;;13.63;11.67;;;20.90;89.80;;;;;;5058845;28;20446;-44
2021/07/13 06:39:06;;;;;;;13.63;11.30;;;20.90;89.80;;;;;;5060661;28;20446;-43
2021/07/13 06:41:33;;;;;;;11.67;10.47;;;20.90;89.80;;;;;;5060197;28;20486;-45
2021/07/13 06:44:00;;;;;;;12.73;10.60;;;20.90;89.80;;;;;;5062193;28;20456;-45
2021/07/13 06:46:26;;;;;;;11.00;9.80;;;21.00;89.80;;;;;;5054678;28;20826;-45
2021/07/13 06:48:53;;;;;;;11.70;10.50;;;21.00;89.80;;;;;;5057907;28;20458;-46
2021/07/13 06:51:20;;;;;;;10.70;9.37;;;21.00;89.80;;;;;;5060820;28;20466;-45
2021/07/13 06:53:47;;;;;;;11.30;10.30;;;21.00;89.80;;;;;;5066409;28;20472;-45
2021/07/13 06:56:15;;;;;;;10.70;9.40;;;21.00;89.80;;;;;;5068001;28;20871;-45
2021/07/13 06:58:42;;;;;;;10.00;9.03;;;21.00;89.80;;;;;;5064284;28;20438;-44
2021/07/13 07:01:08;;;;;;;10.90;9.73;;;21.00;89.80;;;;;;5088485;28;20493;-43
2021/07/13 07:03:35;;;;;;;10.27;9.27;;;21.00;89.80;;;;;;5061954;28;20450;-45
2021/07/13 07:06:02;;;;;;;10.77;9.67;;;21.10;89.80;;;;;;5064571;28;20814;-44
2021/07/13 07:08:29;;;;;;;10.60;9.43;;;21.10;89.80;;;;;;5061305;28;20453;-46
2021/07/13 07:11:09;;;;;;;10.93;9.90;;;21.10;89.80;;;;;;5059468;28;20469;-45
2021/07/13 07:13:36;;;;;;;11.40;10.30;;;21.10;89.80;;;;;;5059727;28;20457;-45
2021/07/13 07:16:03;;;;;;;11.13;9.50;;;21.10;89.80;;;;;;5057892;28;20462;-46
2021/07/13 07:18:30;;;;;;;10.80;9.70;;;21.10;89.80;;;;;;5056306;28;20976;-45
2021/07/13 07:20:56;;;;;;;11.63;8.17;;;21.10;89.80;;;;;;5058401;28;20492;-44
2021/07/13 07:23:23;;;;;;;12.03;10.13;;;21.20;89.80;;;;;;5058178;28;20488;-44
2021/07/13 07:25:50;;;;;;;10.50;9.40;;;21.10;89.80;;;;;;5057282;28;20481;-44
2021/07/13 07:28:18;;;;;;;12.07;10.10;;;21.20;89.80;;;;;;5056311;28;20463;-45
2021/07/13 07:30:46;;;;;;;11.23;10.03;;;21.20;89.80;;;;;;5054767;28;20458;-45
2021/07/13 07:33:12;;;;;;;14.03;10.83;;;21.20;89.80;;;;;;5057293;28;20466;-45
2021/07/13 07:35:40;;;;;;;15.37;11.57;;;21.20;89.80;;;;;;5054645;28;20454;-46
2021/07/13 07:38:06;;;;;;;11.80;10.60;;;21.20;89.80;;;;;;5056142;28;20469;-43
2021/07/13 07:40:33;;;;;;;15.60;12.27;;;21.10;89.80;;;;;;5057887;28;20960;-46
2021/07/13 07:43:00;;;;;;;15.13;11.83;;;21.20;89.80;;;;;;5051686;28;21654;-45
2021/07/13 07:45:28;;;;;;;13.57;12.17;;;21.20;89.80;;;;;;5056192;28;20464;-45
2021/07/13 07:47:55;;;;;;;13.70;10.50;;;21.20;89.80;;;;;;5057890;28;21040;-45
2021/07/13 07:50:24;;;;;;;13.87;12.50;;;21.20;89.80;;;;;;5058793;28;20433;-45
2021/07/13 07:52:51;;;;;;;13.80;12.50;;;21.30;89.80;;;;;;5056771;28;20452;-45
2021/07/13 07:55:21;;;;;;;11.83;10.60;;;21.30;89.80;;;;;;5059810;28;20450;-46
2021/07/13 07:57:48;;;;;;;12.90;11.57;;;21.30;89.80;;;;;;5058602;28;21018;-44
2021/07/13 08:00:17;;;;;;;12.63;11.27;;;21.30;89.80;;;;;;5059310;28;20504;-45
2021/07/13 08:02:44;;;;;;;14.23;10.63;;;21.30;89.80;;;;;;5055225;28;20487;-46
2021/07/13 08:05:14;;;;;;;13.30;11.20;;;21.30;89.80;;;;;;5086134;28;20825;-43
2021/07/13 08:07:42;;;;;;;12.00;10.50;;;21.30;89.80;;;;;;5086206;28;20446;-43
2021/07/13 08:10:10;;;;;;;12.90;11.60;;;21.40;89.80;;;;;;5082136;28;20540;-45
2021/07/13 08:12:37;;;;;;;12.63;11.33;;;21.40;89.80;;;;;;5057426;28;20457;-45
2021/07/13 08:15:05;;;;;;;12.93;11.00;;;21.40;89.80;;;;;;5056053;28;21990;-45
2021/07/13 08:17:32;;;;;;;13.30;11.83;;;21.40;89.80;;;;;;5063205;28;20477;-44
2021/07/13 08:20:00;;;;;;;12.20;10.90;;;21.40;89.80;;;;;;5062577;28;20458;-45
2021/07/13 08:22:27;;;;;;;13.17;10.63;;;21.40;89.80;;;;;;5090961;28;20500;-44
2021/07/13 08:24:53;;;;;;;11.63;10.40;;;21.40;89.80;;;;;;5062328;28;20833;-46
2021/07/13 08:27:20;;;;;;;13.73;11.00;;;21.50;89.80;;;;;;5060706;28;20462;-45
2021/07/13 08:29:47;;;;;;;13.70;10.30;;;21.50;89.80;;;;;;5060410;28;20944;-43
2021/07/13 08:32:14;;;;;;;13.00;11.00;;;21.50;89.80;;;;;;5062505;28;20498;-45
2021/07/13 08:34:41;;;;;;;11.00;9.90;;;21.50;89.80;;;;;;5060242;28;20512;-44
2021/07/13 08:37:08;;;;;;;11.23;9.80;;;21.50;89.80;;;;;;5089045;28;20984;-45
2021/07/13 08:39:34;;;;;;;11.03;9.73;;;21.60;89.80;;;;;;5060015;28;20462;-44
2021/07/13 08:42:03;;;;;;;11.90;10.57;;;21.60;89.60;;;;;;5059674;28;20487;-46
2021/07/13 08:44:31;;;;;;;12.43;10.93;;;21.60;89.50;;;;;;5060018;28;20508;-45
2021/07/13 08:46:57;;;;;;;13.33;8.97;;;21.60;89.50;;;;;;5060840;28;20473;-44
2021/07/13 08:49:25;;;;;;;11.70;9.87;;;21.60;89.50;;;;;;5063404;28;20438;-46
2021/07/13 08:51:51;;;;;;;11.70;8.80;;;21.60;89.50;;;;;;5059529;28;20465;-45
2021/07/13 08:54:18;;;;;;;13.20;9.20;;;21.50;89.50;;;;;;5089659;28;20795;-45
2021/07/13 08:56:45;;;;;;;10.40;7.93;;;21.50;89.50;;;;;;5063959;28;20469;-44
2021/07/13 08:59:13;;;;;;;7.90;7.20;;;21.50;89.40;;;;;;5055041;28;20545;-44
2021/07/13 09:01:40;;;;;;;12.37;8.63;;;21.50;89.30;;;;;;5056071;28;20987;-45
2021/07/13 09:04:08;;;;;;;10.70;9.13;;;21.50;89.30;;;;;;5057866;28;20449;-45
2021/07/13 09:06:55;;;;;;;9.80;8.10;;;21.50;89.40;;;;;;5057829;28;21204;-45
2021/07/13 09:09:22;;;;;;;11.13;8.67;;;21.50;89.40;;;;;;5086557;28;20529;-46
2021/07/13 09:12:08;;;;;;;11.73;9.10;;;21.50;89.40;;;;;;5059593;28;20468;-45
2021/07/13 09:14:56;;;;;;;12.40;9.20;;;21.50;89.50;;;;;;5060460;28;20536;-46
2021/07/13 09:17:29;;;;;;;9.93;8.87;;;21.50;89.50;;;;;;5058872;28;20521;-45
2021/07/13 09:20:23;;;;;;;12.13;10.00;;;21.40;89.60;;;;;;5056667;28;20951;-45
2021/07/13 09:23:03;;;;;;;11.70;10.50;;;21.40;89.60;;;;;;5056818;28;20492;-44
2021/07/13 09:25:31;;;;;;;16.10;10.10;;;21.40;89.70;;;;;;5057939;28;20450;-45
2021/07/13 09:28:12;;;;;;;11.43;10.33;;;21.40;89.80;;;;;;5088120;28;20460;-45
2021/07/13 09:30:51;;;;;;;12.83;10.57;;;21.40;89.80;;;;;;5059016;28;20967;-46
2021/07/13 09:33:26;;;;;;;13.50;9.77;;;21.40;89.80;;;;;;5058721;28;20468;-46
2021/07/13 09:36:15;;;;;;;11.07;10.00;;;21.30;89.80;;;;;;5060902;28;20453;-46
2021/07/13 09:38:54;;;;;;;10.77;9.07;;;21.30;89.80;;;;;;5057989;28;20852;-46
2021/07/13 09:41:31;;;;;;;10.83;8.30;;;21.40;89.80;;;;;;5059677;28;20504;-45
2021/07/13 09:44:00;;;;;;;9.53;8.67;;;21.40;89.80;;;;;;5061002;28;20461;-46
2021/07/13 09:46:40;;;;;;;10.33;9.33;;;21.40;89.80;;;;;;5088900;28;20905;-46
2021/07/13 09:49:20;;;;;;;10.63;8.80;;;21.40;89.80;;;;;;5088094;28;20451;-46
2021/07/13 09:52:00;;;;;;;11.10;9.33;;;21.50;89.80;;;;;;5055763;28;20473;-45
2021/07/13 09:54:32;;;;;;;11.90;8.70;;;21.50;89.80;;;;;;5059569;28;20462;-45
2021/07/13 09:57:06;;;;;;;11.73;9.90;;;21.50;89.80;;;;;;5055735;28;20454;-45
2021/07/13 09:59:33;;;;;;;10.33;9.30;;;21.50;89.80;;;;;;5056040;28;20462;-46
2021/07/13 10:02:03;;;;;;;20.70;10.30;;;21.50;89.80;;;;;;5058298;28;20488;-45
2021/07/13 10:04:31;;;;;;;11.47;9.53;;;21.60;89.80;;;;;;5056102;28;20512;-46
2021/07/13 10:07:04;;;;;;;11.40;8.83;;;21.60;89.80;;;;;;5059267;28;20462;-44
2021/07/13 10:09:35;;;;;;;9.20;8.30;;;21.60;89.80;;;;;;5058526;28;20483;-46
2021/07/13 10:12:06;;;;;;;8.37;7.60;;;21.70;89.80;;;;;;5056427;28;20458;-46
2021/07/13 10:14:33;;;;;;;10.03;8.27;;;21.70;89.80;;;;;;5055613;28;20472;-44
2021/07/13 10:17:01;;;;;;;9.57;8.57;;;21.70;89.80;;;;;;5056198;28;20462;-45
2021/07/13 10:19:30;;;;;;;11.30;8.00;;;21.70;89.80;;;;;;5053930;28;21200;-45
2021/07/13 10:21:57;;;;;;;10.73;7.80;;;21.80;89.80;;;;;;5058178;28;20518;-44
2021/07/13 10:24:25;;;;;;;7.43;6.73;;;21.80;89.80;;;;;;5057761;28;20454;-45
2021/07/13 10:26:53;;;;;;;8.77;7.87;;;21.80;89.80;;;;;;5057227;28;20645;-46
2021/07/13 10:29:33;;;;;;;12.53;8.00;;;21.90;89.60;;;;;;5054784;28;20546;-43
2021/07/13 10:32:07;;;;;;;8.77;7.87;;;21.90;89.40;;;;;;5054886;28;20471;-46
2021/07/13 10:34:54;;;;;;;9.40;8.10;;;22.00;89.20;;;;;;5057100;28;20469;-45
2021/07/13 10:37:38;;;;;;;11.40;8.13;;;22.00;89.10;;;;;;5087859;28;20485;-44
2021/07/13 10:40:06;;;;;;;8.10;7.30;;;22.10;88.90;;;;;;5054718;28;20942;-46
2021/07/13 10:42:58;;;;;;;7.97;7.10;;;22.10;88.20;;;;;;5071729;28;20518;-44
2021/07/13 10:45:46;;;;;;;9.53;7.23;;;22.10;88.10;;;;;;5057195;28;20808;-44
2021/07/13 10:48:20;;;;;;;7.57;6.83;;;22.10;88.00;;;;;;5058140;28;20445;-45
2021/07/13 10:50:53;;;;;;;6.60;6.00;;;22.00;88.00;;;;;;5059037;28;20505;-45
2021/07/13 10:53:40;;;;;;;8.20;6.57;;;22.00;88.10;;;;;;5087806;28;20488;-45
2021/07/13 10:56:15;;;;;;;6.50;5.90;;;22.10;87.80;;;;;;5057309;28;20548;-45
2021/07/13 10:58:52;;;;;;;9.03;6.67;;;22.20;88.20;;;;;;5058843;28;20445;-45
2021/07/13 11:01:29;;;;;;;7.23;6.17;;;22.20;88.20;;;;;;5058516;28;20465;-45
2021/07/13 11:04:03;;;;;;;7.40;5.80;;;22.40;88.30;;;;;;5053088;28;20489;-44
2021/07/13 11:06:46;;;;;;;5.53;4.90;;;22.60;88.30;;;;;;5057007;28;20469;-43
2021/07/13 11:09:28;;;;;;;6.63;4.70;;;22.80;85.80;;;;;;5057932;28;20858;-44
2021/07/13 11:12:14;;;;;;;7.17;5.10;;;22.90;85.20;;;;;;5060339;28;20476;-45
2021/07/13 11:14:52;;;;;;;5.30;4.80;;;23.00;84.70;;;;;;5061696;28;20461;-44
2021/07/13 11:17:21;;;;;;;7.40;5.30;;;23.10;84.00;;;;;;5054562;28;20460;-45
2021/07/13 11:19:48;;;;;;;5.13;4.50;;;23.20;83.50;;;;;;5057543;28;20940;-43
2021/07/13 11:22:19;;;;;;;4.03;3.63;;;23.20;82.50;;;;;;5056500;28;20492;-44
2021/07/13 11:24:46;;;;;;;5.93;4.93;;;23.20;82.50;;;;;;5057777;28;20461;-45
2021/07/13 11:27:16;;;;;;;5.50;5.00;;;23.10;82.60;;;;;;5055439;28;20464;-43
2021/07/13 11:29:51;;;;;;;4.67;4.23;;;23.10;83.20;;;;;;5055796;28;20454;-44
2021/07/13 11:32:18;;;;;;;4.60;4.20;;;23.10;82.40;;;;;;5054039;28;20453;-46
2021/07/13 11:34:45;;;;;;;4.83;3.97;;;23.00;82.30;;;;;;5056734;28;21047;-44
2021/07/13 11:37:12;;;;;;;4.93;4.47;;;23.10;83.00;;;;;;5057390;28;20911;-45
2021/07/13 11:39:40;;;;;;;5.47;5.07;;;23.10;83.20;;;;;;5053342;28;21088;-46
2021/07/13 11:42:09;;;;;;;5.23;4.73;;;23.10;83.20;;;;;;5057065;28;20454;-46
2021/07/13 11:44:38;;;;;;;7.83;5.53;;;23.10;83.40;;;;;;5055783;28;20523;-45
2021/07/13 11:47:13;;;;;;;4.83;4.40;;;23.10;83.60;;;;;;5055448;28;20446;-45
2021/07/13 11:49:41;;;;;;;6.23;5.10;;;23.20;83.50;;;;;;5057391;28;20448;-44
2021/07/13 11:52:13;;;;;;;5.63;4.90;;;23.20;83.50;;;;;;5064255;28;20455;-44
2021/07/13 11:54:46;;;;;;;4.60;4.20;;;23.20;83.60;;;;;;5091652;28;20523;-44
2021/07/13 11:57:18;;;;;;;5.10;4.60;;;23.20;83.70;;;;;;5057951;28;20450;-46
2021/07/13 11:59:45;;;;;;;7.20;5.33;;;23.20;83.20;;;;;;5060496;28;20463;-45
2021/07/13 12:02:13;;;;;;;8.50;5.20;;;23.10;83.30;;;;;;5058037;28;20780;-44
2021/07/13 12:04:42;;;;;;;5.30;4.80;;;23.10;83.10;;;;;;5058801;28;20519;-43
2021/07/13 12:07:09;;;;;;;7.83;4.73;;;23.10;83.30;;;;;;5075718;28;21609;-45
2021/07/13 12:09:39;;;;;;;5.00;4.37;;;23.10;83.70;;;;;;5062277;28;20461;-44
2021/07/13 12:12:10;;;;;;;5.40;5.00;;;23.10;83.90;;;;;;5061354;28;20835;-45
2021/07/13 12:14:39;;;;;;;5.80;5.30;;;23.10;84.20;;;;;;5092756;28;20457;-45
2021/07/13 12:17:06;;;;;;;5.63;4.60;;;23.00;84.00;;;;;;5056755;28;20448;-45
2021/07/13 12:19:35;;;;;;;5.80;5.30;;;23.00;83.90;;;;;;5087463;28;20477;-46
2021/07/13 12:22:08;;;;;;;8.33;5.67;;;23.00;84.00;;;;;;5062043;28;20514;-46
2021/07/13 12:24:45;;;;;;;5.63;5.13;;;23.00;84.10;;;;;;5062612;28;20468;-45
2021/07/13 12:27:15;;;;;;;9.73;5.80;;;23.00;84.40;;;;;;5063236;28;20452;-46
2021/07/13 12:29:44;;;;;;;20.63;7.87;;;23.00;84.70;;;;;;5061158;28;20950;-46
2021/07/13 12:32:20;;;;;;;8.60;6.10;;;23.00;84.90;;;;;;5060567;28;20459;-46
2021/07/13 12:34:50;;;;;;;19.13;6.63;;;23.10;84.80;;;;;;5062145;28;20448;-45
2021/07/13 12:37:25;;;;;;;181.33;26.30;;;23.10;84.30;;;;;;5059523;28;20499;-46
2021/07/13 12:39:59;;;;;;;60.60;11.03;;;23.20;84.20;;;;;;5062007;28;20455;-45
2021/07/13 12:42:31;;;;;;;27.43;7.83;;;23.20;84.20;;;;;;5089523;28;20487;-45
2021/07/13 12:45:10;;;;;;;6.07;5.50;;;23.30;84.00;;;;;;5058555;28;20456;-45
2021/07/13 12:47:39;;;;;;;7.20;5.80;;;23.30;83.60;;;;;;5058987;28;21008;-45
2021/07/13 12:50:24;;;;;;;5.97;5.23;;;23.40;83.10;;;;;;5063111;28;20442;-45
2021/07/13 12:53:14;;;;;;;6.33;5.50;;;23.40;83.00;;;;;;5060367;28;20969;-46
2021/07/13 12:55:48;;;;;;;6.70;6.10;;;23.30;82.90;;;;;;5058806;28;20807;-44